Time;durP1;ratioP1;P1;durP2;ratioP2;P2;SDS_P1;SDS_P2;PMS_P1;PMS_P2;Temp;Humidity;BMP_temperature;BMP_pressure;BME280_temperature;BME280_humidity;BME280_pressure;Samples;Min_cycle;Max_cycle;Signal;HPM_P1;HPM_P2
2021/12/18 00:00:22;;;;;;;4.07;1.69;;;;;;;;;;357990;147;859325;-59
2021/12/18 00:01:24;;;;;;;2.38;1.56;;;;;;;;;;358551;147;865998;-60
2021/12/18 00:02:26;;;;;;;1.57;1.16;;;;;;;;;;357216;147;857446;-59
2021/12/18 00:03:27;;;;;;;2.50;1.59;;;;;;;;;;358251;148;857291;-61
2021/12/18 00:04:29;;;;;;;4.09;1.87;;;;;;;;;;356047;148;860943;-60
2021/12/18 00:05:30;;;;;;;4.12;1.74;;;;;;;;;;354914;148;861068;-61
2021/12/18 00:06:32;;;;;;;1.90;1.30;;;;;;;;;;351276;150;860522;-59
2021/12/18 00:07:35;;;;;;;3.38;1.67;;;;;;;;;;352570;149;860919;-59
2021/12/18 00:08:37;;;;;;;2.18;1.61;;;;;;;;;;351373;149;857388;-61
2021/12/18 00:09:40;;;;;;;2.39;1.65;;;;;;;;;;353269;149;856849;-61
2021/12/18 00:10:44;;;;;;;3.32;1.74;;;;;;;;;;352083;149;856315;-60
2021/12/18 00:11:45;;;;;;;2.79;1.40;;;;;;;;;;349470;150;857771;-59
2021/12/18 00:12:49;;;;;;;2.71;1.47;;;;;;;;;;352201;149;858890;-59
2021/12/18 00:13:50;;;;;;;3.17;1.40;;;;;;;;;;351232;150;864965;-59
2021/12/18 00:14:52;;;;;;;4.54;1.60;;;;;;;;;;344436;153;864957;-58
2021/12/18 00:15:53;;;;;;;2.41;1.45;;;;;;;;;;345039;152;864805;-59
2021/12/18 00:28:47;;;;;;;2.73;1.19;;;;;;;2.06;66.08;100155.86;370473;141;876439;-60
2021/12/18 00:29:48;;;;;;;2.46;1.51;;;;;;;1.95;66.21;100156.41;363364;147;858831;-58
2021/12/18 00:30:50;;;;;;;2.61;1.40;;;;;;;1.78;66.39;100158.43;361465;147;865203;-58
2021/12/18 00:31:52;;;;;;;1.85;1.09;;;;;;;1.69;66.91;100153.92;361738;147;860583;-60
2021/12/18 00:32:54;;;;;;;1.98;1.32;;;;;;;1.74;66.84;100162.59;360538;148;858739;-59
2021/12/18 00:33:55;;;;;;;1.50;0.92;;;;;;;1.76;66.62;100162.63;361530;148;866560;-61
2021/12/18 00:34:57;;;;;;;2.31;1.11;;;;;;;1.78;66.70;100165.23;360832;147;866614;-57
2021/12/18 00:35:59;;;;;;;1.69;1.58;;;;;;;1.78;66.58;100165.23;361673;148;857258;-59
2021/12/18 00:37:01;;;;;;;2.59;1.29;;;;;;;1.81;66.69;100161.08;361557;147;865087;-59
2021/12/18 00:38:04;;;;;;;5.82;2.29;;;;;;;1.84;66.61;100170.53;361276;147;859382;-59
2021/12/18 00:39:06;;;;;;;2.31;1.38;;;;;;;1.84;66.72;100166.28;361943;147;860107;-59
2021/12/18 00:40:16;;;;;;;2.59;1.34;;;;;;;1.87;66.46;100171.48;361439;147;859431;-58
2021/12/18 00:41:27;;;;;;;3.59;1.54;;;;;;;1.71;66.65;100169.27;361709;147;857299;-59
2021/12/18 00:42:26;;;;;;;3.80;1.61;;;;;;;;;;359930;147;857174;-59
2021/12/18 00:43:30;;;;;;;2.53;1.34;;;;;;;;;;361408;148;864389;-59
2021/12/18 00:44:29;;;;;;;3.30;1.44;;;;;;;;;;361498;148;857337;-59
2021/12/18 00:45:31;;;;;;;2.44;1.29;;;;;;;;;;361583;147;857265;-59
2021/12/18 00:46:34;;;;;;;2.16;1.43;;;;;;;;;;360985;147;864961;-61
2021/12/18 00:47:35;;;;;;;1.98;1.25;;;;;;;;;;360450;148;857359;-59
2021/12/18 00:48:37;;;;;;;2.69;1.45;;;;;;;;;;361173;147;865052;-59
2021/12/18 00:49:38;;;;;;;3.34;1.66;;;;;;;;;;361437;147;857201;-59
2021/12/18 00:50:40;;;;;;;2.61;1.21;;;;;;;;;;361625;148;857507;-59
2021/12/18 00:51:42;;;;;;;8.08;2.96;;;;;;;;;;361310;147;866886;-61
2021/12/18 00:52:43;;;;;;;3.34;1.36;;;;;;;;;;362459;148;857543;-59
2021/12/18 00:53:45;;;;;;;3.18;1.33;;;;;;;;;;361556;148;863302;-59
2021/12/18 00:54:46;;;;;;;3.58;1.21;;;;;;;;;;360366;148;863248;-59
2021/12/18 00:55:50;;;;;;;3.99;2.04;;;;;;;;;;362279;148;857400;-59
2021/12/18 00:56:52;;;;;;;1.47;1.06;;;;;;;;;;360889;147;857437;-58
2021/12/18 00:57:53;;;;;;;2.78;1.53;;;;;;;;;;362151;148;857264;-59
2021/12/18 00:58:55;;;;;;;4.19;1.86;;;;;;;;;;362479;147;865094;-59
2021/12/18 01:00:01;;;;;;;2.57;1.26;;;;;;;;;;361267;147;865075;-59
2021/12/18 01:01:06;;;;;;;4.61;1.74;;;;;;;;;;360079;148;857201;-59
2021/12/18 01:02:04;;;;;;;1.81;1.21;;;;;;;;;;361357;148;865238;-59
2021/12/18 01:03:14;;;;;;;2.19;1.37;;;;;;;;;;361226;147;865452;-59
2021/12/18 01:04:09;;;;;;;4.60;1.76;;;;;;;;;;359928;147;860156;-59
2021/12/18 01:05:11;;;;;;;2.56;1.18;;;;;;;;;;361883;148;856220;-59
2021/12/18 01:06:15;;;;;;;5.14;2.37;;;;;;;;;;362164;148;865443;-59
2021/12/18 01:07:17;;;;;;;6.09;2.01;;;;;;;;;;360917;148;858985;-59
2021/12/18 01:08:18;;;;;;;3.56;1.76;;;;;;;;;;362594;148;858358;-59
2021/12/18 01:09:29;;;;;;;2.09;1.37;;;;;;;;;;362016;147;864619;-59
2021/12/18 01:10:52;;;;;;;2.12;1.24;;;;;;;;;;359054;147;857247;-58
2021/12/18 01:11:45;;;;;;;2.29;1.34;;;;;;;;;;361839;148;864936;-59
2021/12/18 01:12:49;;;;;;;2.19;1.49;;;;;;;;;;361343;147;858342;-59
2021/12/18 01:15:25;;;;;;;2.62;1.28;;;;;;;;;;360187;148;857881;-60
2021/12/18 01:16:22;;;;;;;2.52;1.53;;;;;;;;;;362079;148;857628;-60
2021/12/18 01:23:44;;;;;;;2.07;1.35;;;;;;;;;;361617;148;856515;-59
2021/12/18 01:24:46;;;;;;;2.24;1.19;;;;;;;;;;361307;147;858323;-59
2021/12/18 01:25:49;;;;;;;3.72;1.51;;;;;;;;;;362238;148;866127;-58
2021/12/18 01:26:51;;;;;;;1.17;1.07;;;;;;;;;;360463;147;859091;-59
2021/12/18 01:27:53;;;;;;;1.57;1.04;;;;;;;;;;361951;147;867044;-59
2021/12/18 01:28:54;;;;;;;5.25;1.58;;;;;;;;;;360995;148;865468;-59
2021/12/18 01:29:56;;;;;;;1.70;1.14;;;;;;;;;;360941;148;864584;-59
2021/12/18 01:30:58;;;;;;;2.45;1.58;;;;;;;;;;360081;147;865598;-59
2021/12/18 01:32:00;;;;;;;3.44;1.33;;;;;;;;;;362274;147;864958;-59
2021/12/18 01:33:01;;;;;;;3.98;1.60;;;;;;;;;;361722;148;857195;-58
2021/12/18 01:34:03;;;;;;;1.43;1.14;;;;;;;;;;361440;147;864785;-61
2021/12/18 01:35:05;;;;;;;3.84;1.81;;;;;;;;;;360901;147;864863;-61
2021/12/18 01:36:07;;;;;;;4.09;1.61;;;;;;;;;;359400;148;857442;-61
2021/12/18 01:37:08;;;;;;;2.04;1.30;;;;;;;;;;361279;147;857802;-59
2021/12/18 01:38:10;;;;;;;2.81;1.46;;;;;;;;;;360598;147;864969;-58
2021/12/18 01:39:12;;;;;;;9.27;3.22;;;;;;;;;;359913;147;857897;-61
2021/12/18 01:40:14;;;;;;;2.96;1.71;;;;;;;;;;361592;148;857100;-59
2021/12/18 01:41:17;;;;;;;5.24;1.58;;;;;;;;;;361191;148;865071;-59
2021/12/18 01:51:17;;;;;;;2.93;1.70;;;;;;;;;;359979;148;857646;-59
2021/12/18 01:52:19;;;;;;;3.26;1.84;;;;;;;;;;360379;147;859082;-60
2021/12/18 01:53:19;;;;;;;3.64;1.41;;;;;;;;;;359967;148;858068;-58
2021/12/18 01:54:21;;;;;;;2.49;1.37;;;;;;;;;;360203;148;857222;-61
2021/12/18 01:55:27;;;;;;;2.36;1.51;;;;;;;;;;360578;147;858276;-61
2021/12/18 01:56:28;;;;;;;3.29;2.14;;;;;;;;;;361112;147;858046;-58
2021/12/18 01:57:31;;;;;;;2.27;1.14;;;;;;;;;;362197;148;857310;-59
2021/12/18 01:58:33;;;;;;;7.26;3.37;;;;;;;;;;361264;147;864893;-59
2021/12/18 01:59:36;;;;;;;3.04;1.60;;;;;;;;;;361393;147;857237;-59
2021/12/18 02:00:39;;;;;;;4.47;2.10;;;;;;;;;;361034;148;865026;-59
2021/12/18 02:01:41;;;;;;;2.75;1.53;;;;;;;;;;360171;148;864738;-59
2021/12/18 02:02:42;;;;;;;3.19;1.30;;;;;;;;;;361676;148;864907;-59
2021/12/18 02:03:44;;;;;;;2.36;1.39;;;;;;;;;;361748;147;864217;-59
2021/12/18 02:04:46;;;;;;;3.48;1.42;;;;;;;;;;361612;147;858367;-61
2021/12/18 02:05:48;;;;;;;2.24;1.63;;;;;;;;;;359908;148;855986;-59
2021/12/18 02:06:50;;;;;;;3.24;1.61;;;;;;;;;;360295;147;864673;-59
2021/12/18 02:07:51;;;;;;;2.62;1.50;;;;;;;;;;360272;148;865291;-60
2021/12/18 02:08:53;;;;;;;6.49;2.77;;;;;;;;;;360858;148;864339;-59
2021/12/18 02:10:05;;;;;;;2.34;1.29;;;;;;;;;;361582;147;864800;-60
2021/12/18 02:11:14;;;;;;;2.72;1.27;;;;;;;;;;360097;148;857320;-59
2021/12/18 02:12:13;;;;;;;1.67;1.25;;;;;;;;;;360575;147;858266;-59
2021/12/18 02:13:25;;;;;;;3.17;1.79;;;;;;;;;;361189;147;857698;-59
2021/12/18 02:19:52;;;;;;;1.15;0.91;;;;;;;;;;361510;147;857667;-60
2021/12/18 02:20:51;;;;;;;1.14;0.89;;;;;;;;;;361285;148;859676;-59
2021/12/18 02:21:53;;;;;;;2.91;1.29;;;;;;;;;;362236;148;858910;-59
2021/12/18 02:22:55;;;;;;;1.90;1.14;;;;;;;;;;361154;148;866482;-59
2021/12/18 02:23:57;;;;;;;1.52;0.91;;;;;;;;;;361966;147;858985;-59
2021/12/18 02:24:59;;;;;;;2.74;1.00;;;;;;;;;;360150;148;865704;-59
2021/12/18 02:26:00;;;;;;;3.91;1.63;;;;;;;;;;361151;148;864911;-59
2021/12/18 02:27:02;;;;;;;1.41;1.12;;;;;;;;;;359373;147;864718;-60
2021/12/18 02:28:06;;;;;;;2.74;1.08;;;;;;;;;;361161;147;857458;-59
2021/12/18 02:29:11;;;;;;;1.99;0.99;;;;;;;;;;358641;147;866168;-59
2021/12/18 02:30:12;;;;;;;2.67;1.21;;;;;;;;;;352688;148;857298;-59
2021/12/18 02:31:14;;;;;;;2.41;1.39;;;;;;;;;;353674;148;859092;-60
2021/12/18 02:32:19;;;;;;;2.93;1.33;;;;;;;;;;353811;148;866978;-59
2021/12/18 02:33:19;;;;;;;3.02;1.65;;;;;;;;;;352018;148;858847;-59
2021/12/18 02:34:26;;;;;;;2.71;1.57;;;;;;;;;;354267;148;857213;-59
2021/12/18 02:35:26;;;;;;;1.64;1.10;;;;;;;;;;352954;148;866222;-59
2021/12/18 02:36:29;;;;;;;2.96;1.19;;;;;;;;;;354750;148;857322;-59
2021/12/18 02:37:35;;;;;;;0.98;0.79;;;;;;;;;;352988;150;866246;-59
2021/12/18 02:38:58;;;;;;;1.23;1.12;;;;;;;;;;353687;148;857325;-59
2021/12/18 02:41:45;;;;;;;1.85;1.14;;;;;;;;;;353616;148;858951;-59
2021/12/18 02:42:19;;;;;;;2.37;1.38;;;;;;;;;;343662;151;857678;-59
2021/12/18 02:43:27;;;;;;;7.64;3.38;;;;;;;;;;351596;151;857200;-59
2021/12/18 02:44:29;;;;;;;5.17;2.16;;;;;;;;;;354181;150;857302;-59
2021/12/18 02:45:30;;;;;;;3.16;1.86;;;;;;;;;;353175;148;857668;-58
2021/12/18 02:46:32;;;;;;;2.17;1.48;;;;;;;;;;352663;151;868681;-58
2021/12/18 02:47:34;;;;;;;3.54;1.77;;;;;;;;;;352439;148;860201;-58
2021/12/18 02:48:36;;;;;;;2.35;1.50;;;;;;;;;;354218;148;859531;-59
2021/12/18 02:49:49;;;;;;;2.59;1.37;;;;;;;;;;352298;151;860638;-59
2021/12/18 02:50:51;;;;;;;2.22;1.17;;;;;;;;;;353711;148;857308;-58
2021/12/18 02:51:52;;;;;;;4.31;1.36;;;;;;;;;;353064;150;857654;-58
2021/12/18 03:37:59;;;;;;;1.74;0.85;;;;;;;-0.49;74.86;100287.80;370432;142;880060;-59
2021/12/18 03:39:01;;;;;;;0.89;0.86;;;;;;;-0.60;74.87;100287.32;363841;146;857238;-59
2021/12/18 03:40:04;;;;;;;0.72;0.72;;;;;;;-0.59;74.83;100290.75;363988;145;858868;-59
2021/12/18 03:41:06;;;;;;;0.92;0.75;;;;;;;-0.57;74.63;100290.80;363597;145;858670;-58
2021/12/18 03:42:08;;;;;;;1.22;0.79;;;;;;;-0.49;74.32;100300.52;364093;146;864958;-59
2021/12/18 03:43:10;;;;;;;1.09;0.72;;;;;;;-0.39;73.92;100299.24;363747;146;857736;-58
2021/12/18 03:44:12;;;;;;;1.36;0.77;;;;;;;-0.28;73.74;100299.67;362706;145;858831;-58
2021/12/18 03:45:14;;;;;;;0.99;0.71;;;;;;;-0.17;73.40;100295.89;363540;145;864244;-58
2021/12/18 03:46:16;;;;;;;0.77;0.75;;;;;;;0.02;72.67;100295.79;363005;146;865798;-58
2021/12/18 03:47:18;;;;;;;1.31;0.64;;;;;;;0.17;71.73;100281.13;363796;145;865353;-58
2021/12/18 03:48:19;;;;;;;1.53;0.80;;;;;;;0.20;71.67;100288.88;363986;145;865445;-59
2021/12/18 03:49:21;;;;;;;0.96;0.86;;;;;;;0.41;71.25;100293.97;363757;145;858955;-59
2021/12/18 03:50:23;;;;;;;1.02;0.78;;;;;;;0.57;70.52;100289.45;364386;145;866176;-59
2021/12/18 03:51:25;;;;;;;2.70;0.86;;;;;;;0.68;70.01;100295.83;358432;147;859487;-59
2021/12/18 03:52:27;;;;;;;0.66;0.62;;;;;;;0.81;69.40;100294.63;358802;147;864888;-59
2021/12/18 03:53:28;;;;;;;1.19;0.71;;;;;;;0.81;68.81;100293.73;357932;147;864938;-59
2021/12/18 03:54:30;;;;;;;1.09;0.91;;;;;;;1.02;68.49;100293.67;358221;147;864700;-59
2021/12/18 03:55:32;;;;;;;3.35;1.08;;;;;;;1.19;68.29;100295.95;359091;147;865108;-59
2021/12/18 03:56:34;;;;;;;1.16;0.68;;;;;;;1.30;67.92;100299.76;357971;147;866208;-59
2021/12/18 03:57:35;;;;;;;0.72;0.59;;;;;;;1.33;67.37;100297.31;357244;147;857432;-58
2021/12/18 03:58:37;;;;;;;0.84;0.79;;;;;;;1.30;66.91;100292.10;358066;147;865030;-57
2021/12/18 03:59:39;;;;;;;2.13;1.09;;;;;;;1.37;66.94;100298.30;357375;147;866488;-58
2021/12/18 04:00:41;;;;;;;1.11;0.96;;;;;;;1.33;67.22;100301.56;358177;147;865982;-61
2021/12/18 04:01:43;;;;;;;1.11;0.86;;;;;;;1.31;67.18;100297.27;358644;147;859430;-59
2021/12/18 04:02:45;;;;;;;0.87;0.77;;;;;;;1.31;66.89;100304.05;357320;147;858894;-59
2021/12/18 04:03:46;;;;;;;1.74;0.81;;;;;;;1.20;66.88;100293.48;358312;147;857237;-59
2021/12/18 04:04:48;;;;;;;1.39;1.08;;;;;;;1.27;67.12;100299.65;357981;147;864940;-60
2021/12/18 04:05:50;;;;;;;1.87;0.86;;;;;;;1.25;67.12;100296.17;357254;147;864708;-60
2021/12/18 04:06:51;;;;;;;1.23;0.71;;;;;;;1.21;67.22;100292.66;356659;147;864804;-58
2021/12/18 04:08:08;;;;;;;1.07;0.90;;;;;;;1.09;67.08;100293.08;358452;147;864854;-61
2021/12/18 04:08:57;;;;;;;1.32;0.66;;;;;;;1.13;67.07;100307.67;356554;147;866225;-59
2021/12/18 04:09:59;;;;;;;2.04;0.80;;;;;;;1.04;65.98;100304.80;357548;147;864967;-59
2021/12/18 04:11:01;;;;;;;1.08;0.67;;;;;;;1.06;66.62;100297.18;358541;147;857108;-59
2021/12/18 04:12:04;;;;;;;3.66;1.75;;;;;;;1.07;66.90;100297.25;358830;147;857747;-58
2021/12/18 04:13:06;;;;;;;4.43;1.33;;;;;;;1.09;66.58;100293.08;358128;147;864758;-59
2021/12/18 04:14:10;;;;;;;0.90;0.74;;;;;;;1.01;66.91;100299.58;357171;147;866183;-61
2021/12/18 04:15:11;;;;;;;1.62;1.09;;;;;;;1.09;66.72;100295.63;358062;147;858105;-59
2021/12/18 04:16:14;;;;;;;1.44;0.88;;;;;;;1.12;66.93;100300.84;357798;147;864063;-59
2021/12/18 04:17:16;;;;;;;1.17;0.87;;;;;;;0.93;67.08;100303.53;358672;147;864807;-59
2021/12/18 04:18:17;;;;;;;1.44;0.91;;;;;;;0.97;66.98;100296.03;358845;147;857248;-59
2021/12/18 04:19:19;;;;;;;1.91;1.07;;;;;;;1.05;67.01;100303.98;357681;147;865258;-59
2021/12/18 04:20:24;;;;;;;1.64;1.12;;;;;;;1.09;67.02;100303.28;358510;147;865071;-57
2021/12/18 04:21:25;;;;;;;1.08;0.80;;;;;;;;;;359835;147;857282;-60
2021/12/18 04:22:27;;;;;;;2.84;0.94;;;;;;;;;;359523;147;857638;-60
2021/12/18 04:23:28;;;;;;;1.19;1.00;;;;;;;;;;359503;147;865043;-58
2021/12/18 04:24:30;;;;;;;0.80;0.71;;;;;;;;;;358365;147;860752;-60
2021/12/18 04:25:32;;;;;;;2.08;0.71;;;;;;;;;;357629;147;865923;-60
2021/12/18 04:26:33;;;;;;;0.79;0.70;;;;;;;;;;357846;147;857292;-59
2021/12/18 04:27:35;;;;;;;2.64;0.74;;;;;;;;;;358349;147;857560;-59
2021/12/18 04:28:36;;;;;;;0.69;0.69;;;;;;;;;;358838;147;856382;-61
2021/12/18 04:29:38;;;;;;;0.96;0.79;;;;;;;;;;358052;147;865282;-61
2021/12/18 04:30:39;;;;;;;1.00;0.78;;;;;;;;;;358022;147;856505;-61
2021/12/18 04:31:41;;;;;;;0.73;0.70;;;;;;;;;;357552;147;856505;-60
2021/12/18 04:32:43;;;;;;;1.10;0.95;;;;;;;;;;358640;147;865836;-60
2021/12/18 04:33:44;;;;;;;1.00;0.80;;;;;;;;;;357437;147;863678;-60
2021/12/18 04:34:46;;;;;;;1.50;0.89;;;;;;;;;;358280;147;864757;-60
2021/12/18 04:35:47;;;;;;;1.79;0.99;;;;;;;;;;358507;147;857296;-59
2021/12/18 04:36:49;;;;;;;1.62;0.72;;;;;;;;;;357974;147;858349;-59
2021/12/18 04:37:51;;;;;;;1.92;0.84;;;;;;;;;;356366;147;863595;-59
2021/12/18 04:38:52;;;;;;;1.48;0.64;;;;;;;;;;358899;147;858986;-59
2021/12/18 04:39:54;;;;;;;2.19;0.68;;;;;;;;;;358000;147;858122;-58
2021/12/18 04:40:55;;;;;;;1.72;0.81;;;;;;;;;;358555;147;864826;-58
2021/12/18 04:41:58;;;;;;;1.21;0.90;;;;;;;;;;359839;147;857350;-58
2021/12/18 04:42:59;;;;;;;1.59;0.87;;;;;;;;;;358293;147;857461;-59
2021/12/18 04:44:01;;;;;;;2.93;0.84;;;;;;;;;;358185;147;858106;-59
2021/12/18 04:45:03;;;;;;;1.61;0.70;;;;;;;;;;358009;147;865993;-59
2021/12/18 04:46:05;;;;;;;1.35;0.85;;;;;;;;;;356344;147;860210;-59
2021/12/18 04:47:06;;;;;;;1.56;0.94;;;;;;;;;;358695;147;858547;-58
2021/12/18 04:48:08;;;;;;;0.60;0.59;;;;;;;;;;359019;147;863671;-58
2021/12/18 04:49:10;;;;;;;1.14;0.89;;;;;;;;;;359428;147;866663;-59
2021/12/18 04:50:11;;;;;;;1.39;0.95;;;;;;;;;;358188;147;858560;-59
2021/12/18 04:51:13;;;;;;;1.59;0.93;;;;;;;;;;359112;147;859019;-59
2021/12/18 04:52:14;;;;;;;1.36;0.99;;;;;;;;;;359885;147;859615;-60
2021/12/18 04:53:16;;;;;;;1.46;0.93;;;;;;;;;;357884;147;860445;-59
2021/12/18 04:54:18;;;;;;;1.33;1.01;;;;;;;;;;358555;147;856359;-59
2021/12/18 04:55:19;;;;;;;1.20;0.96;;;;;;;;;;359355;147;865071;-59
2021/12/18 04:56:21;;;;;;;1.32;0.99;;;;;;;;;;358662;147;857495;-59
2021/12/18 04:57:23;;;;;;;2.25;1.35;;;;;;;;;;357802;147;859195;-59
2021/12/18 04:58:24;;;;;;;1.16;1.00;;;;;;;;;;358970;147;866703;-59
2021/12/18 04:59:26;;;;;;;1.18;1.08;;;;;;;;;;358430;147;857453;-58
2021/12/18 05:00:37;;;;;;;1.89;1.13;;;;;;;;;;357585;147;866019;-58
2021/12/18 05:01:36;;;;;;;1.50;1.05;;;;;;;;;;344941;153;865408;-59
2021/12/18 05:02:40;;;;;;;1.74;1.22;;;;;;;;;;350803;150;864892;-59
2021/12/18 05:03:41;;;;;;;1.66;1.17;;;;;;;;;;356214;147;856681;-59
2021/12/18 05:04:43;;;;;;;1.44;1.11;;;;;;;;;;358230;147;858838;-59
2021/12/18 05:05:45;;;;;;;2.20;1.38;;;;;;;;;;357070;147;858715;-62
2021/12/18 05:06:48;;;;;;;1.37;1.23;;;;;;;;;;358553;147;866554;-59
2021/12/18 05:07:50;;;;;;;3.07;1.34;;;;;;;;;;358586;147;857228;-59
2021/12/18 05:08:52;;;;;;;1.86;1.19;;;;;;;;;;357909;147;857454;-58
2021/12/18 05:09:53;;;;;;;1.68;1.38;;;;;;;;;;356891;147;865000;-59
2021/12/18 05:10:55;;;;;;;1.49;1.24;;;;;;;;;;357490;147;859468;-60
2021/12/18 05:11:56;;;;;;;1.40;1.30;;;;;;;;;;356408;147;864840;-60
2021/12/18 05:12:58;;;;;;;2.87;1.34;;;;;;;;;;357578;147;857486;-59
2021/12/18 05:13:59;;;;;;;2.12;1.42;;;;;;;;;;358214;147;857938;-60
2021/12/18 05:15:01;;;;;;;1.56;1.32;;;;;;;;;;358638;147;866015;-60
2021/12/18 05:16:03;;;;;;;2.09;1.33;;;;;;;;;;358796;147;859363;-59
2021/12/18 05:17:05;;;;;;;2.27;1.59;;;;;;;;;;356788;147;857283;-59
2021/12/18 05:18:06;;;;;;;2.32;1.51;;;;;;;;;;357747;147;859003;-58
2021/12/18 05:19:08;;;;;;;6.36;1.99;;;;;;;;;;357401;147;864930;-58
2021/12/18 05:20:10;;;;;;;2.00;1.49;;;;;;;;;;357617;147;860970;-59
2021/12/18 05:21:12;;;;;;;2.19;1.59;;;;;;;;;;357199;147;857240;-59
2021/12/18 05:22:14;;;;;;;1.82;1.36;;;;;;;;;;357008;147;858924;-60
2021/12/18 05:23:15;;;;;;;2.29;1.17;;;;;;;;;;358998;147;858256;-59
2021/12/18 05:24:17;;;;;;;1.18;1.08;;;;;;;;;;358984;147;864381;-59
2021/12/18 05:25:18;;;;;;;2.17;1.71;;;;;;;;;;357354;147;857220;-62
2021/12/18 05:26:20;;;;;;;1.83;1.33;;;;;;;;;;358953;147;857290;-61
2021/12/18 05:27:22;;;;;;;2.21;1.55;;;;;;;;;;356780;147;857819;-61
2021/12/18 05:28:23;;;;;;;2.17;1.53;;;;;;;;;;358688;147;866608;-61
2021/12/18 05:29:25;;;;;;;1.68;1.24;;;;;;;;;;358612;147;860023;-60
2021/12/18 05:30:27;;;;;;;3.31;1.51;;;;;;;;;;358410;147;858280;-59
2021/12/18 05:31:28;;;;;;;3.46;2.61;;;;;;;;;;358195;147;864933;-59
2021/12/18 05:32:30;;;;;;;2.56;1.60;;;;;;;;;;357672;147;859407;-59
2021/12/18 05:33:31;;;;;;;2.47;1.63;;;;;;;;;;358100;147;859846;-59
2021/12/18 05:34:37;;;;;;;1.69;1.45;;;;;;;;;;358372;147;862055;-60
2021/12/18 05:35:37;;;;;;;2.29;1.74;;;;;;;;;;357967;147;866155;-59
2021/12/18 05:38:04;;;;;;;1.68;1.39;;;;;;;;;;357640;147;856693;-60
2021/12/18 05:39:03;;;;;;;4.09;1.52;;;;;;;;;;357084;147;856864;-61
2021/12/18 05:40:05;;;;;;;2.74;1.57;;;;;;;;;;357704;147;857355;-58
2021/12/18 05:41:07;;;;;;;2.20;1.52;;;;;;;;;;357944;147;857282;-58
2021/12/18 05:42:08;;;;;;;1.96;1.51;;;;;;;;;;360105;147;859783;-59
2021/12/18 05:43:10;;;;;;;1.98;1.26;;;;;;;;;;358239;147;865015;-57
2021/12/18 05:44:12;;;;;;;2.74;1.38;;;;;;;;;;358020;147;864278;-58
2021/12/18 05:45:13;;;;;;;4.09;2.07;;;;;;;;;;358115;147;860372;-58
2021/12/18 05:46:15;;;;;;;2.87;1.89;;;;;;;;;;359434;147;859680;-58
2021/12/18 05:47:17;;;;;;;2.22;1.36;;;;;;;;;;358245;147;857664;-57
2021/12/18 05:48:18;;;;;;;1.71;1.29;;;;;;;;;;356802;147;865889;-59
2021/12/18 05:49:20;;;;;;;1.59;1.23;;;;;;;;;;358018;147;857905;-59
2021/12/18 05:50:27;;;;;;;1.75;1.23;;;;;;;;;;359278;147;863734;-58
2021/12/18 05:51:26;;;;;;;1.81;1.30;;;;;;;;;;357000;147;857387;-59
2021/12/18 05:52:28;;;;;;;1.19;1.04;;;;;;;;;;352349;150;864868;-59
2021/12/18 05:53:29;;;;;;;1.97;1.25;;;;;;;;;;358271;147;865120;-59
2021/12/18 05:54:34;;;;;;;1.86;1.41;;;;;;;;;;357754;147;859557;-59
2021/12/18 05:55:34;;;;;;;3.53;1.02;;;;;;;;;;357404;147;865570;-59
2021/12/18 05:56:36;;;;;;;1.73;1.14;;;;;;;;;;357771;147;856248;-58
2021/12/18 05:57:38;;;;;;;1.48;1.17;;;;;;;;;;358515;147;864681;-59
2021/12/18 05:58:41;;;;;;;1.64;1.14;;;;;;;;;;358752;147;864010;-59
2021/12/18 05:59:42;;;;;;;1.86;1.17;;;;;;;;;;358840;147;859127;-60
2021/12/18 06:00:44;;;;;;;1.25;1.08;;;;;;;;;;358332;147;857741;-59
2021/12/18 06:01:46;;;;;;;1.93;1.39;;;;;;;;;;357358;147;857154;-59
2021/12/18 06:02:48;;;;;;;1.51;1.01;;;;;;;;;;359393;147;858963;-59
2021/12/18 06:03:49;;;;;;;3.03;1.01;;;;;;;;;;358776;147;859580;-59
2021/12/18 06:04:51;;;;;;;1.18;1.06;;;;;;;;;;357970;147;865944;-59
2021/12/18 06:05:52;;;;;;;0.96;0.89;;;;;;;;;;358758;147;861982;-58
2021/12/18 06:07:03;;;;;;;1.52;1.08;;;;;;;;;;356760;147;865578;-58
2021/12/18 06:07:58;;;;;;;2.12;1.15;;;;;;;;;;357683;147;858585;-58
2021/12/18 06:09:00;;;;;;;1.57;1.23;;;;;;;;;;357291;147;859448;-61
2021/12/18 06:10:02;;;;;;;1.29;1.06;;;;;;;;;;357409;147;858349;-60
2021/12/18 06:11:10;;;;;;;1.47;0.94;;;;;;;;;;356672;147;864810;-61
2021/12/18 06:12:09;;;;;;;1.53;1.16;;;;;;;;;;356144;147;864772;-63
2021/12/18 06:13:11;;;;;;;4.19;1.25;;;;;;;;;;357323;147;858737;-61
2021/12/18 06:14:12;;;;;;;1.29;1.19;;;;;;;;;;359165;147;863698;-64
2021/12/18 06:15:14;;;;;;;2.16;1.54;;;;;;;;;;357647;147;859816;-61
2021/12/18 06:16:17;;;;;;;1.43;1.11;;;;;;;;;;356967;147;866792;-61
2021/12/18 06:17:18;;;;;;;1.61;1.14;;;;;;;;;;356585;147;859205;-61
2021/12/18 06:18:20;;;;;;;1.67;1.17;;;;;;;;;;359525;147;859124;-60
2021/12/18 06:19:22;;;;;;;1.67;1.08;;;;;;;;;;356840;147;864854;-62
2021/12/18 06:20:24;;;;;;;1.75;1.17;;;;;;;;;;358861;147;857481;-57
2021/12/18 06:21:26;;;;;;;1.41;1.11;;;;;;;;;;358788;147;857795;-61
2021/12/18 06:22:27;;;;;;;5.10;1.15;;;;;;;;;;358652;147;857732;-62
2021/12/18 06:23:29;;;;;;;2.08;1.21;;;;;;;;;;357707;147;866241;-57
2021/12/18 06:24:30;;;;;;;1.39;1.09;;;;;;;;;;356003;147;860213;-57
2021/12/18 06:25:32;;;;;;;2.26;1.42;;;;;;;;;;359198;147;860565;-58
2021/12/18 06:26:33;;;;;;;1.74;1.28;;;;;;;;;;358174;147;864977;-56
2021/12/18 06:27:35;;;;;;;1.56;1.19;;;;;;;;;;356824;147;865066;-57
2021/12/18 06:28:37;;;;;;;1.47;1.27;;;;;;;;;;357055;147;857429;-58
2021/12/18 06:29:39;;;;;;;2.20;1.19;;;;;;;;;;359479;147;859295;-55
2021/12/18 06:30:41;;;;;;;3.24;2.31;;;;;;;;;;358885;147;857461;-58
2021/12/18 06:31:42;;;;;;;4.69;2.85;;;;;;;;;;356893;147;866470;-59
2021/12/18 06:32:44;;;;;;;5.56;3.04;;;;;;;;;;345056;153;864766;-57
2021/12/18 06:33:46;;;;;;;3.02;1.81;;;;;;;;;;350059;150;865786;-58
2021/12/18 06:34:47;;;;;;;4.29;2.54;;;;;;;;;;358331;147;858218;-59
2021/12/18 06:35:49;;;;;;;7.43;3.65;;;;;;;;;;358268;147;864769;-58
2021/12/18 06:36:50;;;;;;;6.91;4.09;;;;;;;;;;357512;147;857265;-57
2021/12/18 06:37:52;;;;;;;3.30;1.31;;;;;;;;;;359203;147;864781;-58
2021/12/18 06:38:54;;;;;;;5.79;1.89;;;;;;;;;;356372;147;865312;-57
2021/12/18 06:39:55;;;;;;;2.41;1.40;;;;;;;;;;352995;150;858910;-56
2021/12/18 06:40:57;;;;;;;2.91;1.36;;;;;;;;;;352644;151;859973;-60
2021/12/18 06:41:59;;;;;;;1.76;1.09;;;;;;;;;;352464;150;857363;-58
2021/12/18 06:43:00;;;;;;;3.11;1.27;;;;;;;;;;352238;150;857394;-57
2021/12/18 06:44:02;;;;;;;1.91;1.20;;;;;;;;;;352916;150;857687;-60
2021/12/18 06:45:03;;;;;;;1.48;1.27;;;;;;;;;;351410;150;857247;-59
2021/12/18 06:46:06;;;;;;;1.29;1.10;;;;;;;;;;351676;150;865709;-57
2021/12/18 06:47:08;;;;;;;2.85;1.21;;;;;;;;;;352565;150;859500;-57
2021/12/18 06:48:10;;;;;;;1.74;1.23;;;;;;;;;;351886;150;857637;-58
2021/12/18 06:49:11;;;;;;;1.82;1.38;;;;;;;;;;353797;149;857810;-57
2021/12/18 06:50:13;;;;;;;1.44;1.05;;;;;;;;;;351548;150;863355;-57
2021/12/18 06:51:16;;;;;;;1.49;1.28;;;;;;;;;;353937;150;859832;-58
2021/12/18 06:52:17;;;;;;;1.54;1.29;;;;;;;;;;351386;151;859336;-58
2021/12/18 06:53:19;;;;;;;2.03;1.33;;;;;;;;;;353390;149;856657;-58
2021/12/18 06:54:20;;;;;;;1.99;1.05;;;;;;;;;;352701;150;864760;-57
2021/12/18 06:55:22;;;;;;;1.29;1.14;;;;;;;;;;352114;150;857442;-58
2021/12/18 06:56:25;;;;;;;1.43;1.17;;;;;;;;;;351802;150;861676;-58
2021/12/18 06:57:27;;;;;;;2.86;1.18;;;;;;;;;;349954;150;857881;-57
2021/12/18 06:58:28;;;;;;;1.27;1.11;;;;;;;;;;352931;150;864961;-57
2021/12/18 06:59:30;;;;;;;2.16;1.49;;;;;;;;;;351584;150;866590;-59
2021/12/18 07:00:32;;;;;;;3.11;2.72;;;;;;;;;;352251;150;864832;-57
2021/12/18 07:01:33;;;;;;;6.63;5.27;;;;;;;;;;352095;150;866654;-57
2021/12/18 07:02:35;;;;;;;2.48;2.06;;;;;;;;;;352393;150;859179;-57
2021/12/18 07:03:36;;;;;;;3.48;2.24;;;;;;;;;;352043;150;865905;-57
2021/12/18 07:04:38;;;;;;;7.29;5.65;;;;;;;;;;351576;151;856899;-57
2021/12/18 07:05:39;;;;;;;3.58;2.49;;;;;;;;;;350274;150;863922;-58
2021/12/18 07:06:41;;;;;;;2.59;2.10;;;;;;;;;;352581;150;856492;-57
2021/12/18 07:07:43;;;;;;;2.50;2.26;;;;;;;;;;351578;150;861285;-57
2021/12/18 07:08:44;;;;;;;2.92;2.34;;;;;;;;;;350632;150;856350;-57
2021/12/18 07:09:46;;;;;;;5.29;3.25;;;;;;;;;;351199;150;858987;-58
2021/12/18 07:10:47;;;;;;;3.24;2.04;;;;;;;;;;350666;150;856759;-58
2021/12/18 07:11:49;;;;;;;2.37;1.93;;;;;;;;;;352407;150;856906;-58
2021/12/18 07:12:50;;;;;;;3.75;1.69;;;;;;;;;;351860;150;857503;-58
2021/12/18 07:13:52;;;;;;;2.70;1.82;;;;;;;;;;351313;150;856572;-57